createdAt,value
2023-10-21T00:00:26.142Z,75.91
2023-10-21T00:03:14.887Z,75.26
2023-10-21T00:05:44.133Z,74.96
2023-10-21T00:08:12.815Z,75.81
2023-10-21T00:10:41.717Z,75.03
2023-10-21T00:13:10.235Z,75.08
2023-10-21T00:15:38.946Z,77.46
2023-10-21T00:18:07.605Z,77.85
2023-10-21T00:20:36.239Z,76.65
2023-10-21T00:23:04.824Z,75.73
2023-10-21T00:25:33.337Z,76.72
2023-10-21T00:28:02.022Z,76.62
2023-10-21T00:30:30.729Z,77.27
2023-10-21T00:32:59.487Z,78.47
2023-10-21T00:35:28.230Z,78.97
2023-10-21T00:37:57.052Z,78.40
2023-10-21T00:40:25.740Z,79.41
2023-10-21T00:42:55.820Z,78.33
2023-10-21T00:45:24.850Z,77.74
2023-10-21T00:47:53.770Z,78.44
2023-10-21T00:50:22.688Z,78.71
2023-10-21T00:52:51.888Z,78.94
2023-10-21T00:55:20.612Z,79.91
2023-10-21T00:57:50.056Z,79.31
2023-10-21T01:00:18.940Z,80.65
2023-10-21T01:02:48.680Z,78.47
2023-10-21T01:05:17.473Z,79.38
2023-10-21T01:07:46.150Z,78.78
2023-10-21T01:10:14.732Z,79.55
2023-10-21T01:12:43.493Z,81.29
2023-10-21T01:15:13.202Z,81.34
2023-10-21T01:17:42.253Z,80.12
2023-10-21T01:20:11.929Z,82.22
2023-10-21T01:22:40.872Z,82.16
2023-10-21T01:25:09.975Z,81.86
2023-10-21T01:27:39.018Z,80.94
2023-10-21T01:30:08.313Z,81.26
2023-10-21T01:32:37.286Z,81.86
2023-10-21T01:35:07.427Z,82.77
2023-10-21T01:37:36.101Z,82.66
2023-10-21T01:40:05.697Z,82.59
2023-10-21T01:42:35.596Z,82.56
2023-10-21T01:45:05.553Z,83.12
2023-10-21T01:47:34.298Z,83.34
2023-10-21T01:50:08.748Z,83.49
2023-10-21T01:52:38.196Z,83.47
2023-10-21T01:55:10.210Z,84.51
2023-10-21T01:57:38.955Z,85.36
2023-10-21T02:00:12.017Z,84.88
2023-10-21T02:02:44.119Z,85.08
2023-10-21T02:05:13.497Z,84.90
2023-10-21T02:07:42.050Z,83.91
2023-10-21T02:10:10.860Z,84.66
2023-10-21T02:12:39.597Z,85.37
2023-10-21T02:15:19.167Z,84.14
2023-10-21T02:17:47.984Z,83.87
2023-10-21T02:20:16.886Z,84.86
2023-10-21T02:22:47.729Z,84.70
2023-10-21T02:25:18.125Z,83.86
2023-10-21T02:27:47.117Z,85.36
2023-10-21T02:30:18.253Z,84.56
2023-10-21T02:32:48.778Z,84.37
2023-10-21T02:35:18.164Z,83.78
2023-10-21T02:37:47.383Z,83.92
2023-10-21T02:40:19.356Z,84.50
2023-10-21T02:42:48.858Z,86.43
2023-10-21T02:45:17.534Z,86.95
2023-10-21T02:47:46.294Z,87.45
2023-10-21T02:50:15.049Z,86.58
2023-10-21T02:52:44.960Z,85.83
2023-10-21T02:55:13.665Z,86.66
2023-10-21T02:57:42.697Z,87.86
2023-10-21T03:00:17.014Z,88.18
2023-10-21T03:02:46.317Z,87.42
2023-10-21T03:05:15.384Z,87.44
2023-10-21T03:07:44.744Z,87.72
2023-10-21T03:10:13.835Z,87.87
2023-10-21T03:12:44.798Z,88.38
2023-10-21T03:15:13.918Z,89.34
2023-10-21T03:17:42.854Z,89.89
2023-10-21T03:20:12.659Z,90.77
2023-10-21T03:22:41.317Z,91.06
2023-10-21T03:25:10.178Z,91.45
2023-10-21T03:27:38.940Z,91.18
2023-10-21T03:30:09.021Z,89.75
2023-10-21T03:32:37.843Z,89.32
2023-10-21T03:35:07.671Z,91.59
2023-10-21T03:37:36.412Z,90.81
2023-10-21T03:40:07.334Z,93.54
2023-10-21T03:42:36.110Z,93.59
2023-10-21T03:45:09.107Z,93.39
2023-10-21T03:47:37.998Z,93.98
2023-10-21T03:50:08.187Z,94.01
2023-10-21T03:52:37.372Z,92.98
2023-10-21T03:55:06.297Z,92.37
2023-10-21T03:57:34.984Z,92.72
2023-10-21T04:00:06.644Z,93.59
2023-10-21T04:02:40.608Z,94.43
2023-10-21T04:05:09.564Z,94.65
2023-10-21T04:07:38.224Z,93.95
2023-10-21T04:10:08.283Z,93.98
2023-10-21T04:12:38.138Z,93.07
2023-10-21T04:15:10.513Z,92.38
2023-10-21T04:17:40.721Z,91.74
2023-10-21T04:20:12.683Z,90.80
2023-10-21T04:22:41.439Z,91.12
2023-10-21T04:25:14.336Z,91.65
2023-10-21T04:27:43.148Z,90.91
2023-10-21T04:30:13.504Z,92.65
2023-10-21T04:32:42.626Z,93.75
2023-10-21T04:35:11.187Z,94.58
2023-10-21T04:37:39.839Z,94.87
2023-10-21T04:40:09.931Z,95.91
2023-10-21T04:42:40.145Z,94.05
2023-10-21T04:45:10.813Z,95.74
2023-10-21T04:47:39.780Z,95.53
2023-10-21T04:50:08.901Z,94.47
2023-10-21T04:52:38.613Z,94.12
2023-10-21T04:55:08.008Z,95.00
2023-10-21T04:57:36.860Z,95.41
2023-10-21T05:00:11.150Z,93.82
2023-10-21T05:02:40.309Z,92.08
2023-10-21T05:05:10.364Z,93.37
2023-10-21T05:07:40.071Z,93.34
2023-10-21T05:10:09.845Z,91.71
2023-10-21T05:12:38.691Z,90.89
2023-10-21T05:15:07.948Z,91.30
2023-10-21T05:17:36.746Z,92.48
2023-10-21T05:20:06.702Z,91.82
2023-10-21T05:22:36.122Z,90.54
2023-10-21T05:25:06.592Z,90.51
2023-10-21T05:27:36.374Z,90.01
2023-10-21T05:30:06.055Z,89.59
2023-10-21T05:32:35.754Z,89.61
2023-10-21T05:35:08.558Z,89.39
2023-10-21T05:37:37.423Z,89.14
2023-10-21T05:40:07.554Z,88.87
2023-10-21T05:42:36.307Z,88.56
2023-10-21T05:45:05.397Z,88.84
2023-10-21T05:47:34.171Z,88.28
2023-10-21T05:50:03.807Z,87.68
2023-10-21T05:52:32.520Z,87.55
2023-10-21T05:55:03.120Z,87.08
2023-10-21T05:57:32.019Z,87.17
2023-10-21T06:00:01.066Z,86.61
2023-10-21T06:02:29.846Z,85.91
2023-10-21T06:04:58.287Z,85.33
2023-10-21T06:07:27.046Z,85.50
2023-10-21T06:09:56.394Z,84.74
2023-10-21T06:12:25.730Z,84.15
2023-10-21T06:14:54.966Z,83.53
2023-10-21T06:17:23.613Z,82.89
2023-10-21T06:19:53.773Z,82.25
2023-10-21T06:22:23.602Z,81.78
2023-10-21T06:24:52.180Z,81.89
2023-10-21T06:27:20.829Z,81.74
2023-10-21T06:29:49.780Z,81.56
2023-10-21T06:32:18.915Z,81.37
2023-10-21T06:34:48.008Z,81.00
2023-10-21T06:37:16.526Z,81.33
2023-10-21T06:39:48.123Z,81.11
2023-10-21T06:42:18.183Z,80.15
2023-10-21T06:44:46.951Z,79.43
2023-10-21T06:47:15.542Z,79.27
2023-10-21T06:49:46.430Z,79.10
2023-10-21T06:52:15.040Z,77.68
2023-10-21T06:54:43.774Z,77.86
2023-10-21T06:57:12.300Z,77.93
2023-10-21T06:59:41.346Z,77.64
2023-10-21T07:02:10.080Z,77.03
2023-10-21T07:04:39.207Z,75.65
2023-10-21T07:07:08.042Z,74.83
2023-10-21T07:09:36.877Z,74.34
2023-10-21T07:12:06.417Z,73.71
2023-10-21T07:14:35.531Z,73.04
2023-10-21T07:17:04.673Z,73.21
2023-10-21T07:19:33.370Z,73.23
2023-10-21T07:22:02.018Z,72.88
2023-10-21T07:24:30.731Z,72.70
2023-10-21T07:26:59.942Z,72.25
2023-10-21T07:29:28.766Z,71.47
2023-10-21T07:31:57.497Z,71.39
2023-10-21T07:34:26.724Z,70.06
2023-10-21T07:36:55.414Z,70.13
2023-10-21T07:39:23.936Z,70.04
2023-10-21T07:41:52.883Z,69.13
2023-10-21T07:44:23.841Z,68.78
2023-10-21T07:46:53.053Z,67.25
2023-10-21T07:49:21.851Z,66.88
2023-10-21T07:51:50.510Z,67.07
2023-10-21T07:54:19.363Z,66.85
2023-10-21T07:56:50.764Z,65.98
2023-10-21T07:59:20.824Z,65.41
2023-10-21T08:01:51.298Z,65.37
2023-10-21T08:04:20.197Z,64.49
2023-10-21T08:06:49.070Z,64.15
2023-10-21T08:09:19.854Z,63.57
2023-10-21T08:11:48.602Z,62.84
2023-10-21T08:14:19.232Z,62.03
2023-10-21T08:16:48.404Z,61.90
2023-10-21T08:19:18.212Z,61.27
2023-10-21T08:21:46.884Z,60.86
2023-10-21T08:24:15.596Z,60.56
2023-10-21T08:26:44.480Z,60.33
2023-10-21T08:29:13.117Z,56.77
2023-10-21T08:31:42.332Z,58.42
2023-10-21T08:34:14.412Z,57.75
2023-10-21T08:36:43.943Z,57.60
2023-10-21T08:39:13.545Z,57.72
2023-10-21T08:41:42.625Z,57.23
2023-10-21T08:44:13.595Z,57.03
2023-10-21T08:46:43.029Z,55.86
2023-10-21T08:49:13.822Z,55.62
2023-10-21T08:51:42.893Z,55.59
2023-10-21T08:54:13.930Z,55.18
2023-10-21T08:56:42.839Z,54.76
2023-10-21T08:59:11.777Z,54.25
2023-10-21T09:01:43.238Z,53.24
2023-10-21T09:04:17.732Z,52.87
2023-10-21T09:07:00.819Z,52.67
2023-10-21T09:09:31.077Z,51.29
2023-10-21T09:12:12.645Z,51.19
2023-10-21T09:15:00.334Z,51.45
2023-10-21T09:17:39.762Z,51.41
2023-10-21T09:20:17.497Z,50.67
2023-10-21T09:22:54.150Z,49.98
2023-10-21T09:25:24.432Z,49.64
2023-10-21T09:27:55.429Z,48.30
2023-10-21T09:30:27.136Z,48.22
2023-10-21T09:33:07.138Z,48.54
2023-10-21T09:35:39.073Z,48.33
2023-10-21T09:38:19.641Z,48.22
2023-10-21T09:40:50.037Z,47.30
2023-10-21T09:43:19.276Z,46.93
2023-10-21T09:45:49.964Z,45.84
2023-10-21T09:48:19.214Z,45.96
2023-10-21T09:50:59.290Z,45.75
2023-10-21T09:53:39.858Z,45.37
2023-10-21T09:56:12.801Z,44.34
2023-10-21T09:58:42.513Z,43.27
2023-10-21T10:01:14.735Z,43.84
2023-10-21T10:03:45.471Z,44.19
2023-10-21T10:06:14.182Z,43.90
2023-10-21T10:08:42.952Z,44.27
2023-10-21T10:11:16.782Z,44.30
2023-10-21T10:13:49.401Z,43.85
2023-10-21T10:16:26.879Z,43.58
2023-10-21T10:18:58.488Z,42.79
2023-10-21T10:21:29.093Z,43.48
2023-10-21T10:23:59.952Z,43.27
2023-10-21T10:26:39.765Z,42.79
2023-10-21T10:29:27.696Z,42.39
2023-10-21T10:32:16.630Z,42.51
2023-10-21T10:34:53.957Z,42.25
2023-10-21T10:37:39.060Z,42.40
2023-10-21T10:40:20.829Z,41.75
2023-10-21T10:42:52.317Z,41.46
2023-10-21T10:45:21.014Z,41.46
2023-10-21T10:48:00.455Z,40.90
2023-10-21T10:50:30.908Z,40.49
2023-10-21T10:53:01.371Z,39.89
2023-10-21T10:55:30.043Z,39.40
2023-10-21T10:58:00.340Z,38.69
2023-10-21T11:00:28.974Z,38.64
2023-10-21T11:02:57.701Z,37.92
2023-10-21T11:05:26.509Z,37.99
2023-10-21T11:07:55.265Z,37.32
2023-10-21T11:10:26.140Z,36.70
2023-10-21T11:12:54.839Z,35.12
2023-10-21T11:15:24.706Z,36.31
2023-10-21T11:17:54.476Z,35.76
2023-10-21T11:20:23.345Z,33.82
2023-10-21T11:22:54.912Z,32.39
2023-10-21T11:25:25.479Z,32.08
2023-10-21T11:27:54.075Z,32.00
2023-10-21T11:30:23.635Z,31.15
2023-10-21T11:32:54.412Z,31.20
2023-10-21T11:35:25.145Z,30.22
2023-10-21T11:37:56.808Z,29.64
2023-10-21T11:40:25.505Z,30.22
2023-10-21T11:43:07.778Z,30.11
2023-10-21T11:45:36.603Z,30.18
2023-10-21T11:48:12.204Z,29.78
2023-10-21T11:50:45.712Z,30.07
2023-10-21T11:53:14.926Z,29.88
2023-10-21T11:55:52.749Z,30.20
2023-10-21T11:58:43.369Z,29.97
2023-10-21T12:01:32.076Z,29.03
2023-10-21T12:04:59.887Z,28.78
2023-10-21T12:07:54.249Z,28.43
2023-10-21T12:10:25.965Z,27.47
2023-10-21T12:13:00.711Z,27.65
2023-10-21T12:16:10.016Z,27.39
2023-10-21T12:18:56.996Z,27.36
2023-10-21T12:21:43.985Z,27.70
2023-10-21T12:24:18.209Z,27.87
2023-10-21T12:27:05.589Z,27.92
2023-10-21T12:29:49.642Z,27.54
2023-10-21T12:32:36.728Z,27.63
2023-10-21T12:35:27.209Z,27.91
2023-10-21T12:38:07.560Z,27.62
2023-10-21T12:40:39.828Z,27.72
2023-10-21T12:43:17.761Z,27.47
2023-10-21T12:45:48.403Z,27.47
2023-10-21T12:48:19.558Z,27.55
2023-10-21T12:50:53.005Z,27.54
2023-10-21T12:53:21.947Z,27.05
2023-10-21T12:55:51.742Z,26.84
2023-10-21T12:58:20.415Z,26.86
2023-10-21T13:00:49.262Z,26.89
2023-10-21T13:03:19.021Z,27.00
2023-10-21T13:05:47.918Z,27.40
2023-10-21T13:08:16.557Z,27.80
2023-10-21T13:10:45.445Z,27.96
2023-10-21T13:13:17.351Z,28.40
2023-10-21T13:15:46.224Z,28.37
2023-10-21T13:18:15.139Z,28.34
2023-10-21T13:20:44.493Z,28.28
2023-10-21T13:23:13.277Z,28.63
2023-10-21T13:25:41.991Z,28.76
2023-10-21T13:28:11.714Z,28.86
2023-10-21T13:30:40.425Z,28.77
2023-10-21T13:33:11.237Z,29.04
2023-10-21T13:35:40.156Z,28.97
2023-10-21T13:38:10.444Z,29.30
2023-10-21T13:40:40.995Z,29.59
2023-10-21T13:43:11.327Z,29.51
2023-10-21T13:45:39.954Z,29.58
2023-10-21T13:48:12.826Z,29.74
2023-10-21T13:50:42.392Z,30.51
2023-10-21T13:53:15.899Z,31.76
2023-10-21T13:55:48.276Z,32.31
2023-10-21T13:58:17.456Z,32.74
2023-10-21T14:00:46.240Z,33.75
2023-10-21T14:03:17.893Z,34.29
2023-10-21T14:05:52.806Z,34.87
2023-10-21T14:08:26.949Z,35.56
2023-10-21T14:11:10.352Z,35.76
2023-10-21T14:13:39.522Z,36.14
2023-10-21T14:16:13.272Z,36.92
2023-10-21T14:18:46.236Z,37.35
2023-10-21T14:21:15.186Z,37.43
2023-10-21T14:23:44.041Z,37.52
2023-10-21T14:26:17.286Z,37.88
2023-10-21T14:28:46.645Z,38.22
2023-10-21T14:34:54.572Z,38.93
2023-10-21T14:37:25.432Z,39.29
2023-10-21T14:39:54.929Z,39.45
2023-10-21T14:42:24.096Z,39.60
2023-10-21T14:44:53.737Z,39.74
2023-10-21T14:47:27.497Z,40.19
2023-10-21T14:49:59.808Z,40.29
2023-10-21T14:52:30.647Z,40.64
2023-10-21T14:54:59.809Z,41.08
2023-10-21T14:57:29.869Z,41.78
2023-10-21T14:59:59.811Z,42.19
2023-10-21T15:02:32.493Z,42.34
2023-10-21T15:05:01.718Z,42.39
2023-10-21T15:07:31.108Z,42.60
2023-10-21T15:10:01.617Z,42.69
2023-10-21T15:16:05.993Z,43.77
2023-10-21T15:18:34.823Z,44.75
2023-10-21T15:21:08.706Z,45.52
2023-10-21T15:23:39.092Z,45.43
2023-10-21T15:26:18.083Z,46.52
2023-10-21T15:28:46.962Z,45.68
2023-10-21T15:31:16.748Z,45.85
2023-10-21T15:33:45.496Z,46.62
2023-10-21T15:36:17.452Z,47.17
2023-10-21T15:38:46.683Z,48.05
2023-10-21T15:41:19.676Z,47.71
2023-10-21T15:43:49.097Z,48.26
2023-10-21T15:46:18.452Z,48.50
2023-10-21T15:48:47.465Z,49.33
2023-10-21T15:51:16.249Z,49.67
2023-10-21T15:53:48.527Z,51.65
2023-10-21T15:56:17.082Z,51.94
2023-10-21T15:58:46.067Z,51.17
2023-10-21T16:01:15.153Z,50.24
2023-10-21T16:03:45.447Z,51.56
2023-10-21T16:06:15.203Z,51.73
2023-10-21T16:08:44.916Z,52.53
2023-10-21T16:11:13.657Z,52.76
2023-10-21T16:13:42.259Z,55.59
2023-10-21T16:16:11.094Z,56.12
2023-10-21T16:18:40.236Z,55.77
2023-10-21T16:21:09.007Z,56.71
2023-10-21T16:23:39.760Z,57.44
2023-10-21T16:26:11.272Z,57.05
2023-10-21T16:28:40.243Z,57.88
2023-10-21T16:31:09.213Z,59.70
2023-10-21T16:33:39.176Z,58.03
2023-10-21T16:36:11.608Z,59.99
2023-10-21T16:38:41.092Z,61.41
2023-10-21T16:41:11.472Z,61.81
2023-10-21T16:43:41.881Z,62.01
2023-10-21T16:46:13.642Z,61.61
2023-10-21T16:48:42.738Z,63.21
2023-10-21T16:51:12.337Z,63.81
2023-10-21T16:53:41.117Z,61.87
2023-10-21T16:56:12.431Z,60.11
2023-10-21T16:58:41.293Z,61.06
2023-10-21T17:01:10.100Z,62.37
2023-10-21T17:03:40.445Z,61.17
2023-10-21T17:06:09.529Z,60.91
2023-10-21T17:08:38.225Z,61.33
2023-10-21T17:11:07.003Z,63.45
2023-10-21T17:13:35.758Z,63.67
2023-10-21T17:16:06.842Z,61.87
2023-10-21T17:18:36.494Z,62.64
2023-10-21T17:21:20.383Z,63.83
2023-10-21T17:23:50.758Z,65.36
2023-10-21T17:26:19.972Z,64.59
2023-10-21T17:28:49.145Z,64.58
2023-10-21T17:31:19.910Z,64.53
2023-10-21T17:33:51.172Z,64.72
2023-10-21T17:36:21.310Z,65.02
2023-10-21T17:38:50.080Z,65.91
2023-10-21T17:41:18.858Z,66.28
2023-10-21T17:43:50.123Z,66.91
2023-10-21T17:46:19.177Z,66.86
2023-10-21T17:48:47.917Z,66.51
2023-10-21T17:51:19.399Z,66.40
2023-10-21T17:53:48.622Z,66.15
2023-10-21T17:56:17.183Z,66.90
2023-10-21T17:58:45.741Z,66.65
2023-10-21T18:01:14.695Z,66.51
2023-10-21T18:03:43.525Z,67.06
2023-10-21T18:06:15.009Z,66.82
2023-10-21T18:08:53.925Z,66.84
2023-10-21T18:11:25.244Z,67.21
2023-10-21T18:13:55.166Z,67.62
2023-10-21T18:16:23.700Z,67.84
2023-10-21T18:18:53.419Z,68.54
2023-10-21T18:21:21.983Z,69.77
2023-10-21T18:23:53.678Z,69.91
2023-10-21T18:26:22.243Z,70.05
2023-10-21T18:28:50.930Z,71.51
2023-10-21T18:31:22.706Z,72.67
2023-10-21T18:33:57.296Z,72.77
2023-10-21T18:36:28.488Z,73.23
2023-10-21T18:38:57.152Z,71.89
2023-10-21T18:41:28.050Z,72.61
2023-10-21T18:43:57.147Z,73.16
2023-10-21T18:46:31.084Z,71.17
2023-10-21T18:49:00.989Z,71.55
2023-10-21T18:51:33.369Z,71.96
2023-10-21T18:54:07.562Z,72.52
2023-10-21T18:56:36.236Z,72.46
2023-10-21T18:59:06.656Z,72.29
2023-10-21T19:01:37.864Z,72.95
2023-10-21T19:04:08.596Z,73.32
2023-10-21T19:06:41.391Z,73.37
2023-10-21T19:09:10.137Z,73.87
2023-10-21T19:11:42.240Z,73.35
2023-10-21T19:14:13.851Z,73.78
2023-10-21T19:16:42.604Z,73.58
2023-10-21T19:19:11.513Z,72.82
2023-10-21T19:21:41.531Z,72.52
2023-10-21T19:24:10.397Z,72.10
2023-10-21T19:26:39.211Z,71.95
2023-10-21T19:29:09.450Z,71.97
2023-10-21T19:31:38.887Z,71.88
2023-10-21T19:34:07.633Z,72.31
2023-10-21T19:36:36.430Z,72.91
2023-10-21T19:39:06.008Z,72.50
2023-10-21T19:41:34.532Z,72.56
2023-10-21T19:44:14.839Z,72.64
2023-10-21T19:46:52.327Z,72.71
2023-10-21T19:49:23.669Z,72.54
2023-10-21T19:51:52.414Z,73.08
2023-10-21T19:54:21.112Z,73.19
2023-10-21T19:56:50.130Z,73.38
2023-10-21T19:59:18.855Z,73.06
2023-10-21T20:01:50.190Z,73.13
2023-10-21T20:04:18.910Z,73.75
2023-10-21T20:06:47.769Z,74.66
2023-10-21T20:09:16.578Z,74.79
2023-10-21T20:11:48.194Z,75.33
2023-10-21T20:14:16.886Z,75.07
2023-10-21T20:16:47.358Z,74.41
2023-10-21T20:19:18.244Z,74.54
2023-10-21T20:21:47.337Z,73.85
2023-10-21T20:24:16.478Z,74.11
2023-10-21T20:26:45.205Z,74.98
2023-10-21T20:29:14.545Z,73.98
2023-10-21T20:31:43.371Z,74.40
2023-10-21T20:34:12.508Z,75.67
2023-10-21T20:36:41.286Z,77.76
2023-10-21T20:39:10.499Z,78.13
2023-10-21T20:41:44.148Z,79.25
2023-10-21T20:44:13.138Z,79.71
2023-10-21T20:46:41.823Z,80.42
2023-10-21T20:49:10.551Z,78.98
2023-10-21T20:53:50.424Z,77.04
2023-10-21T20:56:21.272Z,76.53
2023-10-21T20:58:50.846Z,76.73
2023-10-21T21:01:30.893Z,77.57
2023-10-21T21:04:07.871Z,77.54
2023-10-21T21:06:38.146Z,78.13
2023-10-21T21:09:09.316Z,78.81
2023-10-21T21:11:38.032Z,81.09
2023-10-21T21:14:06.725Z,81.69
2023-10-21T21:16:36.361Z,79.56
2023-10-21T21:19:06.231Z,79.02
2023-10-21T21:21:35.322Z,79.26
2023-10-21T21:24:06.781Z,80.01
2023-10-21T21:26:35.927Z,79.27
2023-10-21T21:29:05.640Z,80.02
2023-10-21T21:31:34.535Z,79.88
2023-10-21T21:34:03.204Z,82.15
2023-10-21T21:36:55.362Z,82.59
2023-10-21T21:39:24.963Z,80.25
2023-10-21T21:41:53.717Z,80.30
2023-10-21T21:44:22.958Z,79.93
2023-10-21T21:46:51.566Z,80.13
2023-10-21T21:49:20.346Z,80.32
2023-10-21T21:51:48.854Z,80.73
2023-10-21T21:54:17.606Z,82.06
2023-10-21T21:56:46.341Z,82.29
2023-10-21T21:59:15.065Z,82.66
2023-10-21T22:01:43.914Z,82.45
2023-10-21T22:04:12.767Z,82.60
2023-10-21T22:06:43.314Z,82.85
2023-10-21T22:09:15.290Z,82.89
2023-10-21T22:11:45.419Z,83.21
2023-10-21T22:14:15.456Z,83.02
2023-10-21T22:16:43.897Z,83.16
2023-10-21T22:19:15.848Z,84.04
2023-10-21T22:21:48.983Z,83.58
2023-10-21T22:24:17.944Z,83.17
2023-10-21T22:26:54.351Z,83.23
2023-10-21T22:29:26.954Z,83.36
2023-10-21T22:31:57.673Z,83.34
2023-10-21T22:34:26.381Z,83.28
2023-10-21T22:36:55.091Z,83.07
2023-10-21T22:39:24.483Z,84.00
2023-10-21T22:41:54.577Z,84.30
2023-10-21T22:44:23.152Z,84.96
2023-10-21T22:46:51.924Z,85.55
2023-10-21T22:49:20.656Z,85.52
2023-10-21T22:51:49.322Z,85.13
2023-10-21T22:54:18.428Z,86.43
2023-10-21T22:56:47.774Z,86.44
2023-10-21T22:59:16.924Z,85.19
2023-10-21T23:01:45.544Z,85.33
2023-10-21T23:04:14.108Z,85.87
2023-10-21T23:06:45.981Z,86.40
2023-10-21T23:09:29.673Z,85.94
2023-10-21T23:11:58.510Z,86.86
2023-10-21T23:14:28.586Z,87.05
2023-10-21T23:16:57.065Z,86.99
2023-10-21T23:19:25.684Z,88.03
2023-10-21T23:21:54.285Z,87.70
2023-10-21T23:24:23.027Z,89.32
2023-10-21T23:26:51.722Z,87.31
2023-10-21T23:29:20.595Z,88.13
2023-10-21T23:31:49.529Z,87.22
2023-10-21T23:34:18.349Z,86.51
2023-10-21T23:36:48.493Z,85.99
2023-10-21T23:39:21.613Z,85.87
2023-10-21T23:41:51.473Z,86.22
2023-10-21T23:44:20.222Z,86.26
2023-10-21T23:46:48.806Z,86.98
2023-10-21T23:49:17.421Z,87.21
2023-10-21T23:51:46.024Z,87.45
2023-10-21T23:54:14.722Z,87.69
2023-10-21T23:56:43.257Z,88.18
2023-10-21T23:59:11.945Z,87.68
